createdAt,value
2023-01-05T00:01:26.135Z,101089.41
2023-01-05T00:04:10.380Z,101093.00
2023-01-05T00:06:55.968Z,101054.50
2023-01-05T00:09:40.000Z,101066.91
2023-01-05T00:12:41.424Z,101056.75
2023-01-05T00:15:43.095Z,101078.22
2023-01-05T00:18:44.542Z,101038.88
2023-01-05T00:21:46.189Z,101078.97
2023-01-05T00:24:32.069Z,101076.50
2023-01-05T00:27:16.072Z,101033.16
2023-01-05T00:30:00.405Z,101073.97
2023-01-05T00:32:45.117Z,101070.38
2023-01-05T00:35:31.154Z,101072.22
2023-01-05T00:38:15.191Z,101076.50
2023-01-05T00:41:00.655Z,101039.41
2023-01-05T00:43:44.652Z,101039.38
2023-01-05T00:46:28.708Z,101024.28
2023-01-05T00:49:12.785Z,101066.13
2023-01-05T00:51:56.917Z,101063.78
2023-01-05T00:54:40.970Z,101057.53
2023-01-05T00:57:26.596Z,100986.31
2023-01-05T01:00:16.164Z,100998.66
2023-01-05T01:03:00.378Z,100962.31
2023-01-05T01:05:45.645Z,101053.91
2023-01-05T01:08:29.538Z,101008.44
2023-01-05T01:11:13.604Z,100993.84
2023-01-05T01:13:59.157Z,101001.91
2023-01-05T01:16:43.971Z,100985.34
2023-01-05T01:19:28.894Z,100997.41
2023-01-05T01:22:12.875Z,101033.34
2023-01-05T01:24:56.850Z,101028.63
2023-01-05T01:27:40.870Z,100974.38
2023-01-05T01:30:26.382Z,100982.78
2023-01-05T01:33:11.058Z,100966.50
2023-01-05T01:35:55.136Z,100963.81
2023-01-05T01:38:39.467Z,101002.16
2023-01-05T01:41:24.116Z,101007.00
2023-01-05T01:44:41.060Z,100979.81
2023-01-05T01:47:47.184Z,100980.81
2023-01-05T01:50:35.162Z,100947.81
2023-01-05T01:53:24.437Z,100894.59
2023-01-05T01:56:12.847Z,100960.28
2023-01-05T01:58:56.863Z,100935.84
2023-01-05T02:01:41.583Z,100957.94
2023-01-05T02:04:28.258Z,100968.97
2023-01-05T02:07:16.409Z,100918.00
2023-01-05T02:10:00.452Z,100955.19
2023-01-05T02:13:00.045Z,100945.72
2023-01-05T02:15:54.357Z,100909.16
2023-01-05T02:19:01.370Z,100907.34
2023-01-05T02:21:58.805Z,100903.69
2023-01-05T02:25:08.138Z,100934.19
2023-01-05T02:28:00.811Z,100926.03
2023-01-05T02:31:01.716Z,100878.72
2023-01-05T02:34:07.510Z,100917.13
2023-01-05T02:36:57.452Z,100910.81
2023-01-05T02:39:47.946Z,100922.84
2023-01-05T02:42:36.013Z,100884.66
2023-01-05T02:45:20.111Z,100901.00
2023-01-05T02:48:06.312Z,100894.38
2023-01-05T02:50:57.612Z,100887.47
2023-01-05T02:53:46.161Z,100888.94
2023-01-05T02:56:37.200Z,100883.09
2023-01-05T02:59:27.448Z,100850.78
2023-01-05T03:02:15.827Z,100875.00
2023-01-05T03:05:05.978Z,100870.41
2023-01-05T03:07:52.525Z,100877.78
2023-01-05T03:11:01.386Z,100871.09
2023-01-05T03:13:49.870Z,100865.31
2023-01-05T03:16:38.677Z,100860.66
2023-01-05T03:19:39.850Z,100868.41
2023-01-05T03:22:48.635Z,100857.72
2023-01-05T03:25:53.255Z,100818.19
2023-01-05T03:28:59.437Z,100844.28
2023-01-05T03:32:09.792Z,100832.53
2023-01-05T03:35:18.027Z,100841.84
2023-01-05T03:38:17.663Z,100819.00
2023-01-05T03:41:09.127Z,100825.81
2023-01-05T03:43:55.053Z,100840.31
2023-01-05T03:46:42.764Z,100844.78
2023-01-05T03:49:26.922Z,100836.81
2023-01-05T03:52:10.688Z,100797.09
2023-01-05T03:54:59.153Z,100835.50
2023-01-05T03:57:43.504Z,100836.41
2023-01-05T04:00:27.788Z,100839.66
2023-01-05T04:03:19.058Z,100827.38
2023-01-05T04:06:03.225Z,100840.63
2023-01-05T04:08:49.220Z,100834.31
2023-01-05T04:11:34.494Z,100827.16
2023-01-05T04:14:22.091Z,100834.34
2023-01-05T04:17:05.936Z,100813.72
2023-01-05T04:19:49.895Z,100823.13
2023-01-05T04:22:35.050Z,100826.13
2023-01-05T04:25:19.135Z,100833.97
2023-01-05T04:28:05.468Z,100825.16
2023-01-05T04:30:52.146Z,100827.72
2023-01-05T04:33:36.506Z,100827.78
2023-01-05T04:36:20.618Z,100808.09
2023-01-05T04:39:05.322Z,100816.06
2023-01-05T04:41:51.432Z,100837.66
2023-01-05T04:44:38.659Z,100824.66
2023-01-05T04:47:23.768Z,100786.34
2023-01-05T04:50:09.914Z,100809.81
2023-01-05T04:52:54.937Z,100809.19
2023-01-05T04:55:39.583Z,100810.69
2023-01-05T04:58:23.730Z,100798.22
2023-01-05T05:01:12.217Z,100797.78
2023-01-05T05:03:57.794Z,100778.31
2023-01-05T05:06:42.733Z,100787.34
2023-01-05T05:09:26.606Z,100763.50
2023-01-05T05:12:11.322Z,100751.44
2023-01-05T05:14:56.203Z,100770.03
2023-01-05T05:17:42.432Z,100762.47
2023-01-05T05:20:29.329Z,100768.72
2023-01-05T05:23:13.200Z,100772.94
2023-01-05T05:25:57.582Z,100769.47
2023-01-05T05:28:42.085Z,100767.41
2023-01-05T05:31:25.905Z,100763.63
2023-01-05T05:34:11.077Z,100765.16
2023-01-05T05:36:54.865Z,100769.00
2023-01-05T05:39:38.757Z,100752.47
2023-01-05T05:42:22.616Z,100752.25
2023-01-05T05:45:07.645Z,100745.94
2023-01-05T05:47:51.494Z,100734.78
2023-01-05T05:50:36.792Z,100710.91
2023-01-05T05:53:22.790Z,100733.47
2023-01-05T05:56:07.135Z,100731.13
2023-01-05T05:58:53.625Z,100728.47
2023-01-05T06:01:41.675Z,100733.34
2023-01-05T06:04:25.774Z,100715.69
2023-01-05T06:07:11.076Z,100710.53
2023-01-05T06:09:54.903Z,100707.09
2023-01-05T06:12:38.831Z,100700.28
2023-01-05T06:15:23.039Z,100707.44
2023-01-05T06:18:06.974Z,100703.78
2023-01-05T06:20:53.947Z,100706.47
2023-01-05T06:23:41.537Z,100693.97
2023-01-05T06:26:25.351Z,100711.09
2023-01-05T06:29:09.141Z,100698.38
2023-01-05T06:31:52.987Z,100698.81
2023-01-05T06:34:36.830Z,100692.81
2023-01-05T06:37:20.732Z,100700.19
2023-01-05T06:40:06.907Z,100709.34
2023-01-05T06:43:49.257Z,61367.53
2023-01-05T06:47:31.793Z,61367.53
2023-01-05T06:51:14.277Z,61367.53
2023-01-05T06:54:56.508Z,61367.53
2023-01-05T06:58:40.282Z,61367.53
2023-01-05T07:02:22.645Z,61367.53
2023-01-05T07:06:10.003Z,61367.53
2023-01-05T07:09:55.226Z,61367.53
2023-01-05T07:13:39.093Z,61367.53
2023-01-05T07:17:21.385Z,61367.53
2023-01-05T07:21:03.949Z,61367.53
2023-01-05T07:24:46.190Z,61367.53
2023-01-05T07:28:28.461Z,61367.53
2023-01-05T07:32:12.214Z,61367.53
2023-01-05T07:35:54.519Z,61367.53
2023-01-05T07:39:36.864Z,61367.53
2023-01-05T07:43:19.299Z,61367.53
2023-01-05T07:47:03.444Z,61367.53
2023-01-05T07:50:45.680Z,61367.53
2023-01-05T07:54:28.912Z,61367.53
2023-01-05T07:58:11.236Z,61367.53
2023-01-05T08:01:57.500Z,61367.53
2023-01-05T08:05:41.321Z,61367.53
2023-01-05T08:09:40.978Z,61367.53
2023-01-05T08:13:55.199Z,61367.53
2023-01-05T08:17:37.523Z,61367.53
2023-01-05T08:21:21.416Z,61367.53
2023-01-05T08:25:03.898Z,61367.53
2023-01-05T08:28:46.278Z,61367.53
2023-01-05T08:32:29.404Z,61367.53
2023-01-05T08:36:14.237Z,61367.53
2023-01-05T08:39:56.985Z,61367.53
2023-01-05T08:43:39.336Z,61367.53
2023-01-05T08:47:27.868Z,61367.53
2023-01-05T08:51:11.314Z,61367.53
2023-01-05T08:54:55.231Z,61367.53
2023-01-05T08:58:37.591Z,61367.53
2023-01-05T09:02:25.528Z,61367.53
2023-01-05T09:06:11.942Z,61367.53
2023-01-05T09:09:55.742Z,61367.53
2023-01-05T09:13:38.879Z,61367.53
2023-01-05T09:17:22.428Z,61367.53
2023-01-05T09:21:06.205Z,61367.53
2023-01-05T09:24:49.981Z,61367.53
2023-01-05T09:28:32.637Z,61367.53
2023-01-05T09:32:16.068Z,61367.53
2023-01-05T09:35:58.621Z,61367.53
2023-01-05T09:39:41.188Z,61367.53
2023-01-05T09:43:28.709Z,61367.53
2023-01-05T09:47:16.265Z,61367.53
2023-01-05T09:50:59.074Z,61367.53
2023-01-05T09:54:42.124Z,61367.53
2023-01-05T09:58:30.240Z,61367.53
2023-01-05T10:02:20.354Z,61367.53
2023-01-05T10:06:03.797Z,61367.53
2023-01-05T10:09:49.430Z,61367.53
2023-01-05T10:13:40.108Z,61367.53
2023-01-05T10:21:33.458Z,61367.53
2023-01-05T10:25:25.015Z,61367.53
2023-01-05T10:29:22.272Z,61367.53
2023-01-05T10:33:39.608Z,61367.53
2023-01-05T10:37:49.326Z,61367.53
2023-01-05T10:41:52.511Z,61367.53
2023-01-05T10:46:11.610Z,61367.53
2023-01-05T10:49:46.575Z,61367.53
2023-01-05T10:53:30.361Z,61367.53
2023-01-05T10:57:36.608Z,61367.53
2023-01-05T11:01:25.566Z,61367.53
2023-01-05T11:05:21.124Z,61367.53
2023-01-05T11:09:08.608Z,61367.53
2023-01-05T11:12:57.010Z,61367.53
2023-01-05T11:16:48.132Z,61367.53
2023-01-05T11:20:31.964Z,61367.53
2023-01-05T11:24:34.068Z,61367.53
2023-01-05T11:28:23.332Z,61367.53
2023-01-05T11:32:10.980Z,61367.53
2023-01-05T11:35:53.362Z,61367.53
2023-01-05T11:39:36.857Z,61367.53
2023-01-05T11:43:21.423Z,61367.53
2023-01-05T11:47:07.411Z,61367.53
2023-01-05T11:50:51.638Z,61367.53
2023-01-05T11:54:39.366Z,61367.53
2023-01-05T11:58:24.214Z,61367.53
2023-01-05T12:02:50.894Z,61367.53
2023-01-05T12:06:54.371Z,61367.53
2023-01-05T12:10:55.698Z,61367.53
2023-01-05T12:14:59.178Z,61367.53
2023-01-05T12:18:58.999Z,61367.53
2023-01-05T12:22:56.582Z,61367.53
2023-01-05T12:26:53.528Z,61367.53
2023-01-05T12:35:17.827Z,61367.53
2023-01-05T12:39:13.254Z,61367.53
2023-01-05T12:43:02.116Z,61367.53
2023-01-05T12:47:05.679Z,61367.53
2023-01-05T12:50:55.477Z,61367.53
2023-01-05T12:54:44.920Z,61367.53
2023-01-05T12:58:33.718Z,61367.53
2023-01-05T13:02:23.922Z,61367.53
2023-01-05T13:06:17.698Z,61367.53
2023-01-05T13:10:04.645Z,61367.53
2023-01-05T13:13:49.988Z,61367.53
2023-01-05T13:17:36.229Z,61367.53
2023-01-05T13:21:27.874Z,61367.53
2023-01-05T13:25:18.234Z,61367.53
2023-01-05T13:29:04.527Z,61367.53
2023-01-05T13:33:00.378Z,61367.53
2023-01-05T13:36:59.426Z,61367.53
2023-01-05T13:40:57.541Z,61367.53
2023-01-05T13:45:14.320Z,61367.53
2023-01-05T13:49:24.320Z,61367.53
2023-01-05T13:53:18.654Z,61367.53
2023-01-05T13:57:08.979Z,61367.53
2023-01-05T14:00:54.028Z,61367.53
2023-01-05T14:04:38.297Z,61367.53
2023-01-05T14:08:24.614Z,61367.53
2023-01-05T14:12:41.531Z,61367.53
2023-01-05T14:17:02.677Z,61367.53
2023-01-05T14:20:53.759Z,61367.53
2023-01-05T14:24:58.649Z,61367.53
2023-01-05T14:29:09.176Z,61367.53
2023-01-05T14:32:54.544Z,61367.53
2023-01-05T14:36:38.949Z,61367.53
2023-01-05T14:40:30.246Z,61367.53
2023-01-05T14:44:32.312Z,61367.53
2023-01-05T14:48:29.504Z,61367.53
2023-01-05T14:52:22.286Z,61367.53
2023-01-05T14:56:18.131Z,61367.53
2023-01-05T15:00:14.999Z,61367.53
2023-01-05T15:04:05.250Z,61367.53
2023-01-05T15:12:16.214Z,61367.53
2023-01-05T15:16:20.937Z,61367.53
2023-01-05T15:20:27.035Z,61367.53
2023-01-05T15:24:38.752Z,61367.53
2023-01-05T15:28:55.026Z,61367.53
2023-01-05T15:32:42.677Z,61367.53
2023-01-05T15:36:30.506Z,61367.53
2023-01-05T15:40:29.615Z,61367.53
2023-01-05T15:44:16.251Z,61367.53
2023-01-05T15:48:00.494Z,61367.53
2023-01-05T15:51:50.891Z,61367.53
2023-01-05T15:55:33.395Z,61367.53
2023-01-05T15:59:23.147Z,61367.53
2023-01-05T16:03:22.517Z,61367.53
2023-01-05T16:07:07.096Z,61367.53
2023-01-05T16:10:51.813Z,61367.53
2023-01-05T16:14:40.022Z,61367.53
2023-01-05T16:18:24.680Z,61367.53
2023-01-05T16:22:13.762Z,61367.53
2023-01-05T16:25:59.274Z,61367.53
2023-01-05T16:29:45.589Z,61367.53
2023-01-05T16:33:35.005Z,61367.53
2023-01-05T16:37:19.365Z,61367.53
2023-01-05T16:41:28.781Z,61367.53
2023-01-05T16:45:29.390Z,61367.53
2023-01-05T16:49:38.933Z,61367.53
2023-01-05T16:53:26.151Z,61367.53
2023-01-05T16:57:32.100Z,61367.53
2023-01-05T17:01:36.980Z,61367.53
2023-01-05T17:05:20.545Z,61367.53
2023-01-05T17:09:08.663Z,61367.53
2023-01-05T17:12:57.079Z,61367.53
2023-01-05T17:16:44.172Z,61367.53
2023-01-05T17:20:28.866Z,61367.53
2023-01-05T17:24:15.112Z,61367.53
2023-01-05T17:27:57.444Z,61367.53
2023-01-05T17:31:39.818Z,61367.53
2023-01-05T17:35:23.888Z,61367.53
2023-01-05T17:39:06.175Z,61367.53
2023-01-05T17:42:48.690Z,61367.53
2023-01-05T17:46:33.778Z,61367.53
2023-01-05T17:50:19.458Z,61367.53
2023-01-05T17:54:02.926Z,61367.53
2023-01-05T17:57:45.209Z,61367.53
2023-01-05T18:01:28.838Z,61367.53
2023-01-05T18:05:11.634Z,61367.53
2023-01-05T18:08:55.343Z,61367.53
2023-01-05T18:12:37.671Z,61367.53
2023-01-05T18:16:20.056Z,61367.53
2023-01-05T18:20:02.507Z,61367.53
2023-01-05T18:23:47.237Z,61367.53
2023-01-05T18:27:29.621Z,61367.53
2023-01-05T18:31:13.124Z,61367.53
2023-01-05T18:34:55.384Z,61367.53
2023-01-05T18:38:38.293Z,61367.53
2023-01-05T18:42:23.917Z,61367.53
2023-01-05T18:46:07.401Z,61367.53
2023-01-05T18:49:53.541Z,61367.53
2023-01-05T18:53:37.923Z,61367.53
2023-01-05T18:57:21.997Z,61367.53
2023-01-05T19:01:08.894Z,61367.53
2023-01-05T19:04:52.758Z,61367.53
2023-01-05T19:08:35.159Z,61367.53
2023-01-05T19:12:18.282Z,61367.53
2023-01-05T19:15:21.071Z,99986.50
2023-01-05T19:18:05.406Z,99942.81
2023-01-05T19:20:57.916Z,99985.66
2023-01-05T19:23:41.905Z,99968.13
2023-01-05T19:26:28.235Z,99983.91
2023-01-05T19:29:13.420Z,99990.09
2023-01-05T19:31:58.717Z,99942.56
2023-01-05T19:34:43.111Z,99981.16
2023-01-05T19:37:26.894Z,99989.72
2023-01-05T19:40:12.130Z,99981.66
2023-01-05T19:42:57.264Z,99949.03
2023-01-05T19:45:41.032Z,99984.44
2023-01-05T19:48:26.092Z,99973.28
2023-01-05T19:51:12.266Z,99973.41
2023-01-05T19:53:57.842Z,99964.75
2023-01-05T19:56:42.554Z,99976.06
2023-01-05T19:59:33.313Z,99972.34
2023-01-05T20:02:17.420Z,99981.94
2023-01-05T20:05:02.713Z,99972.72
2023-01-05T20:07:50.090Z,99963.59
2023-01-05T20:11:06.459Z,99986.84
2023-01-05T20:13:53.310Z,99978.06
2023-01-05T20:16:37.149Z,99974.19
2023-01-05T20:19:21.926Z,99969.31
2023-01-05T20:22:11.978Z,99981.66
2023-01-05T20:24:55.823Z,99972.13
2023-01-05T20:27:39.808Z,99976.50
2023-01-05T20:30:23.708Z,99973.63
2023-01-05T20:33:07.565Z,99966.56
2023-01-05T20:35:51.363Z,99958.25
2023-01-05T20:38:36.737Z,99929.34
2023-01-05T20:41:23.461Z,99964.00
2023-01-05T20:44:08.969Z,99955.16
2023-01-05T20:46:55.347Z,99940.56
2023-01-05T20:49:40.695Z,99956.25
2023-01-05T20:52:24.609Z,99963.06
2023-01-05T20:55:09.862Z,99969.41
2023-01-05T20:57:53.679Z,99962.34
2023-01-05T21:01:10.866Z,99965.50
2023-01-05T21:03:41.817Z,99798.63
2023-01-05T21:06:25.686Z,99947.66
2023-01-05T21:09:10.283Z,99959.88
2023-01-05T21:11:55.867Z,99968.31
2023-01-05T21:14:39.682Z,99956.06
2023-01-05T21:17:23.422Z,99968.78
2023-01-05T21:20:09.587Z,99964.13
2023-01-05T21:22:53.815Z,99954.63
2023-01-05T21:26:06.611Z,99964.81
2023-01-05T21:28:48.920Z,99956.38
2023-01-05T21:31:33.547Z,99955.63
2023-01-05T21:34:17.343Z,99953.47
2023-01-05T21:37:01.154Z,99957.19
2023-01-05T21:39:45.639Z,99953.22
2023-01-05T21:42:42.686Z,99951.06
2023-01-05T21:45:27.979Z,99946.81
2023-01-05T21:48:11.780Z,99934.34
2023-01-05T21:51:17.464Z,99928.59
2023-01-05T21:54:18.173Z,99928.09
2023-01-05T21:57:02.707Z,99921.38
2023-01-05T21:59:46.418Z,99926.88
2023-01-05T22:02:31.508Z,99917.59
2023-01-05T22:05:15.589Z,99911.66
2023-01-05T22:07:59.349Z,99894.22
2023-01-05T22:10:43.020Z,99907.91
2023-01-05T22:13:26.920Z,99899.41
2023-01-05T22:16:11.126Z,99882.88
2023-01-05T22:18:56.632Z,99876.22
2023-01-05T22:21:40.553Z,99878.84
2023-01-05T22:24:24.324Z,99900.13
2023-01-05T22:27:08.467Z,99901.66
2023-01-05T22:29:52.163Z,99874.97
2023-01-05T22:32:36.232Z,99888.28
2023-01-05T22:35:21.319Z,99894.44
2023-01-05T22:38:05.129Z,99864.38
2023-01-05T22:40:56.645Z,99887.41
2023-01-05T22:43:42.154Z,99886.03
2023-01-05T22:46:28.148Z,99875.69
2023-01-05T22:49:16.482Z,99881.38
2023-01-05T22:52:01.938Z,99892.19
2023-01-05T22:54:45.783Z,99918.84
2023-01-05T22:57:29.635Z,99917.44
2023-01-05T23:00:14.958Z,99896.69
2023-01-05T23:03:00.351Z,99871.66
2023-01-05T23:05:44.212Z,99857.00
2023-01-05T23:08:29.848Z,99899.72
2023-01-05T23:11:15.723Z,99901.94
2023-01-05T23:14:01.093Z,99938.47
2023-01-05T23:16:44.980Z,99912.50
2023-01-05T23:19:28.763Z,99931.75
2023-01-05T23:22:12.483Z,99927.28
2023-01-05T23:24:57.563Z,99940.81
2023-01-05T23:27:41.422Z,99918.22
2023-01-05T23:30:25.185Z,99933.75
2023-01-05T23:33:09.118Z,99821.81
2023-01-05T23:35:54.004Z,99952.72
2023-01-05T23:38:38.517Z,99961.16
2023-01-05T23:41:23.689Z,99964.56
2023-01-05T23:44:08.165Z,99966.53
2023-01-05T23:46:52.020Z,99957.66
2023-01-05T23:49:35.792Z,99946.56
2023-01-05T23:52:19.513Z,99931.59
2023-01-05T23:55:03.621Z,99934.84
2023-01-05T23:57:49.064Z,99950.69
